sensor_id;sensor_type;location;lat;lon;timestamp;temperature;humidity
6110;DHT22;3085;49.444;11.054;2023-03-14T00:02:16;9.80;99.90
6110;DHT22;3085;49.444;11.054;2023-03-14T00:04:43;10.20;99.90
6110;DHT22;3085;49.444;11.054;2023-03-14T00:07:12;9.70;99.90
6110;DHT22;3085;49.444;11.054;2023-03-14T00:09:40;9.70;99.90
6110;DHT22;3085;49.444;11.054;2023-03-14T00:12:08;10.60;99.90
6110;DHT22;3085;49.444;11.054;2023-03-14T00:14:35;9.70;99.90
6110;DHT22;3085;49.444;11.054;2023-03-14T00:17:02;9.70;99.90
6110;DHT22;3085;49.444;11.054;2023-03-14T00:19:29;9.70;99.90
6110;DHT22;3085;49.444;11.054;2023-03-14T00:21:55;9.70;99.90
6110;DHT22;3085;49.444;11.054;2023-03-14T00:24:23;10.90;99.90
6110;DHT22;3085;49.444;11.054;2023-03-14T00:26:50;9.20;99.90
6110;DHT22;3085;49.444;11.054;2023-03-14T00:29:17;9.60;99.90
6110;DHT22;3085;49.444;11.054;2023-03-14T00:31:44;9.70;99.90
6110;DHT22;3085;49.444;11.054;2023-03-14T00:34:10;9.60;99.90
6110;DHT22;3085;49.444;11.054;2023-03-14T00:36:37;9.60;99.90
6110;DHT22;3085;49.444;11.054;2023-03-14T00:39:04;9.60;99.90
6110;DHT22;3085;49.444;11.054;2023-03-14T00:41:32;9.60;99.90
6110;DHT22;3085;49.444;11.054;2023-03-14T00:43:59;9.60;99.90
6110;DHT22;3085;49.444;11.054;2023-03-14T00:46:25;9.70;99.90
6110;DHT22;3085;49.444;11.054;2023-03-14T00:48:52;9.90;99.90
6110;DHT22;3085;49.444;11.054;2023-03-14T00:51:19;9.60;99.90
6110;DHT22;3085;49.444;11.054;2023-03-14T00:53:45;9.60;99.90
6110;DHT22;3085;49.444;11.054;2023-03-14T00:56:13;9.60;99.90
6110;DHT22;3085;49.444;11.054;2023-03-14T00:58:41;9.90;99.90
6110;DHT22;3085;49.444;11.054;2023-03-14T01:01:10;9.70;99.90
6110;DHT22;3085;49.444;11.054;2023-03-14T01:03:37;9.70;99.90
6110;DHT22;3085;49.444;11.054;2023-03-14T01:06:08;9.70;99.90
6110;DHT22;3085;49.444;11.054;2023-03-14T01:08:35;9.70;99.90
6110;DHT22;3085;49.444;11.054;2023-03-14T01:11:06;9.70;99.90
6110;DHT22;3085;49.444;11.054;2023-03-14T01:13:32;9.60;99.90
6110;DHT22;3085;49.444;11.054;2023-03-14T01:16:02;9.70;99.90
6110;DHT22;3085;49.444;11.054;2023-03-14T01:18:31;9.70;99.90
6110;DHT22;3085;49.444;11.054;2023-03-14T01:20:58;9.70;99.90
6110;DHT22;3085;49.444;11.054;2023-03-14T01:23:24;9.70;99.90
6110;DHT22;3085;49.444;11.054;2023-03-14T01:25:51;9.70;99.90
6110;DHT22;3085;49.444;11.054;2023-03-14T01:28:18;9.70;99.90
6110;DHT22;3085;49.444;11.054;2023-03-14T01:30:45;10.30;99.90
6110;DHT22;3085;49.444;11.054;2023-03-14T01:33:13;9.80;99.90
6110;DHT22;3085;49.444;11.054;2023-03-14T01:35:40;9.80;99.90
6110;DHT22;3085;49.444;11.054;2023-03-14T01:38:07;11.30;99.90
6110;DHT22;3085;49.444;11.054;2023-03-14T01:40:33;10.20;99.90
6110;DHT22;3085;49.444;11.054;2023-03-14T01:43:12;9.90;99.90
6110;DHT22;3085;49.444;11.054;2023-03-14T01:48:50;9.90;99.90
6110;DHT22;3085;49.444;11.054;2023-03-14T01:51:22;9.80;99.90
6110;DHT22;3085;49.444;11.054;2023-03-14T01:53:52;9.90;99.90
6110;DHT22;3085;49.444;11.054;2023-03-14T01:56:21;9.90;99.90
6110;DHT22;3085;49.444;11.054;2023-03-14T01:58:51;9.80;99.90
6110;DHT22;3085;49.444;11.054;2023-03-14T02:01:20;9.90;99.90
6110;DHT22;3085;49.444;11.054;2023-03-14T02:03:53;9.90;99.90
6110;DHT22;3085;49.444;11.054;2023-03-14T02:06:24;9.90;99.90
6110;DHT22;3085;49.444;11.054;2023-03-14T02:08:51;9.90;99.90
6110;DHT22;3085;49.444;11.054;2023-03-14T02:11:19;10.20;99.90
6110;DHT22;3085;49.444;11.054;2023-03-14T02:13:46;9.90;99.90
6110;DHT22;3085;49.444;11.054;2023-03-14T02:16:13;9.90;99.90
6110;DHT22;3085;49.444;11.054;2023-03-14T02:18:40;9.90;99.90
6110;DHT22;3085;49.444;11.054;2023-03-14T02:21:15;9.90;99.90
6110;DHT22;3085;49.444;11.054;2023-03-14T02:23:51;9.90;99.90
6110;DHT22;3085;49.444;11.054;2023-03-14T02:26:22;9.90;99.90
6110;DHT22;3085;49.444;11.054;2023-03-14T02:28:52;9.90;99.90
6110;DHT22;3085;49.444;11.054;2023-03-14T02:31:20;9.90;99.90
6110;DHT22;3085;49.444;11.054;2023-03-14T02:33:48;10.10;99.90
6110;DHT22;3085;49.444;11.054;2023-03-14T02:36:15;9.90;99.90
6110;DHT22;3085;49.444;11.054;2023-03-14T02:38:47;10.30;99.90
6110;DHT22;3085;49.444;11.054;2023-03-14T02:41:15;9.90;99.90
6110;DHT22;3085;49.444;11.054;2023-03-14T02:43:42;9.90;99.90
6110;DHT22;3085;49.444;11.054;2023-03-14T02:46:12;10.00;99.90
6110;DHT22;3085;49.444;11.054;2023-03-14T02:48:42;10.00;99.90
6110;DHT22;3085;49.444;11.054;2023-03-14T02:51:10;9.90;99.90
6110;DHT22;3085;49.444;11.054;2023-03-14T02:53:38;9.90;99.90
6110;DHT22;3085;49.444;11.054;2023-03-14T02:56:07;9.90;99.90
6110;DHT22;3085;49.444;11.054;2023-03-14T02:58:34;9.90;99.90
6110;DHT22;3085;49.444;11.054;2023-03-14T03:01:01;9.90;99.90
6110;DHT22;3085;49.444;11.054;2023-03-14T03:03:29;9.90;99.90
6110;DHT22;3085;49.444;11.054;2023-03-14T03:05:56;9.90;99.90
6110;DHT22;3085;49.444;11.054;2023-03-14T03:08:25;10.10;99.90
6110;DHT22;3085;49.444;11.054;2023-03-14T03:10:52;9.80;99.90
6110;DHT22;3085;49.444;11.054;2023-03-14T03:13:19;9.80;99.90
6110;DHT22;3085;49.444;11.054;2023-03-14T03:15:46;9.80;99.90
6110;DHT22;3085;49.444;11.054;2023-03-14T03:18:13;9.80;99.90
6110;DHT22;3085;49.444;11.054;2023-03-14T03:20:41;9.80;99.90
6110;DHT22;3085;49.444;11.054;2023-03-14T03:23:08;9.80;99.90
6110;DHT22;3085;49.444;11.054;2023-03-14T03:25:35;9.80;99.90
6110;DHT22;3085;49.444;11.054;2023-03-14T03:28:01;9.80;99.90
6110;DHT22;3085;49.444;11.054;2023-03-14T03:30:33;9.60;99.90
6110;DHT22;3085;49.444;11.054;2023-03-14T03:33:00;9.70;99.90
6110;DHT22;3085;49.444;11.054;2023-03-14T03:35:27;9.70;99.90
6110;DHT22;3085;49.444;11.054;2023-03-14T03:37:55;9.70;99.90
6110;DHT22;3085;49.444;11.054;2023-03-14T03:40:21;9.70;99.90
6110;DHT22;3085;49.444;11.054;2023-03-14T03:42:48;9.70;99.90
6110;DHT22;3085;49.444;11.054;2023-03-14T03:45:15;9.70;99.90
6110;DHT22;3085;49.444;11.054;2023-03-14T03:47:42;9.60;99.90
6110;DHT22;3085;49.444;11.054;2023-03-14T03:50:09;9.50;99.90
6110;DHT22;3085;49.444;11.054;2023-03-14T03:52:36;9.50;99.90
6110;DHT22;3085;49.444;11.054;2023-03-14T03:55:05;9.60;99.90
6110;DHT22;3085;49.444;11.054;2023-03-14T03:57:32;9.60;99.90
6110;DHT22;3085;49.444;11.054;2023-03-14T03:59:58;9.50;99.90
6110;DHT22;3085;49.444;11.054;2023-03-14T04:02:25;9.50;99.90
6110;DHT22;3085;49.444;11.054;2023-03-14T04:04:52;9.50;99.90
6110;DHT22;3085;49.444;11.054;2023-03-14T04:07:18;9.50;99.90
6110;DHT22;3085;49.444;11.054;2023-03-14T04:09:45;9.50;99.90
6110;DHT22;3085;49.444;11.054;2023-03-14T04:12:13;9.50;99.90
6110;DHT22;3085;49.444;11.054;2023-03-14T04:14:40;9.50;99.90
6110;DHT22;3085;49.444;11.054;2023-03-14T04:17:07;9.50;99.90
6110;DHT22;3085;49.444;11.054;2023-03-14T04:19:34;10.50;99.90
6110;DHT22;3085;49.444;11.054;2023-03-14T04:22:01;9.50;99.90
6110;DHT22;3085;49.444;11.054;2023-03-14T04:24:27;9.50;99.90
6110;DHT22;3085;49.444;11.054;2023-03-14T04:26:54;9.40;99.90
6110;DHT22;3085;49.444;11.054;2023-03-14T04:29:22;9.40;99.90
6110;DHT22;3085;49.444;11.054;2023-03-14T04:31:49;9.50;99.90
6110;DHT22;3085;49.444;11.054;2023-03-14T04:34:16;9.40;99.90
6110;DHT22;3085;49.444;11.054;2023-03-14T04:36:43;9.50;99.90
6110;DHT22;3085;49.444;11.054;2023-03-14T04:39:09;9.50;99.90
6110;DHT22;3085;49.444;11.054;2023-03-14T04:41:36;9.40;99.90
6110;DHT22;3085;49.444;11.054;2023-03-14T04:44:03;9.40;99.90
6110;DHT22;3085;49.444;11.054;2023-03-14T04:46:31;9.30;99.90
6110;DHT22;3085;49.444;11.054;2023-03-14T04:48:58;9.50;99.90
6110;DHT22;3085;49.444;11.054;2023-03-14T04:51:25;9.40;99.90
6110;DHT22;3085;49.444;11.054;2023-03-14T04:53:53;9.40;99.90
6110;DHT22;3085;49.444;11.054;2023-03-14T04:56:19;9.40;99.90
6110;DHT22;3085;49.444;11.054;2023-03-14T04:58:46;9.80;99.90
6110;DHT22;3085;49.444;11.054;2023-03-14T05:01:13;9.30;99.90
6110;DHT22;3085;49.444;11.054;2023-03-14T05:03:41;9.40;99.90
6110;DHT22;3085;49.444;11.054;2023-03-14T05:06:08;9.40;99.90
6110;DHT22;3085;49.444;11.054;2023-03-14T05:08:35;9.40;99.90
6110;DHT22;3085;49.444;11.054;2023-03-14T05:11:02;9.30;99.90
6110;DHT22;3085;49.444;11.054;2023-03-14T05:13:29;9.30;99.90
6110;DHT22;3085;49.444;11.054;2023-03-14T05:16:04;10.60;99.90
6110;DHT22;3085;49.444;11.054;2023-03-14T05:18:30;9.20;99.90
6110;DHT22;3085;49.444;11.054;2023-03-14T05:20:59;9.20;99.90
6110;DHT22;3085;49.444;11.054;2023-03-14T05:23:26;9.20;99.90
6110;DHT22;3085;49.444;11.054;2023-03-14T05:25:52;9.20;99.90
6110;DHT22;3085;49.444;11.054;2023-03-14T05:28:19;9.00;99.90
6110;DHT22;3085;49.444;11.054;2023-03-14T05:30:46;9.10;99.90
6110;DHT22;3085;49.444;11.054;2023-03-14T05:33:13;9.20;99.90
6110;DHT22;3085;49.444;11.054;2023-03-14T05:35:41;9.20;99.90
6110;DHT22;3085;49.444;11.054;2023-03-14T05:38:09;9.10;99.90
6110;DHT22;3085;49.444;11.054;2023-03-14T05:40:36;9.20;99.90
6110;DHT22;3085;49.444;11.054;2023-03-14T05:43:03;9.20;99.90
6110;DHT22;3085;49.444;11.054;2023-03-14T05:45:29;9.20;99.90
6110;DHT22;3085;49.444;11.054;2023-03-14T05:47:56;9.20;99.90
6110;DHT22;3085;49.444;11.054;2023-03-14T05:50:23;9.20;99.90
6110;DHT22;3085;49.444;11.054;2023-03-14T05:52:50;9.10;99.90
6110;DHT22;3085;49.444;11.054;2023-03-14T05:55:18;9.20;99.90
6110;DHT22;3085;49.444;11.054;2023-03-14T05:57:45;9.20;99.90
6110;DHT22;3085;49.444;11.054;2023-03-14T06:00:12;9.30;99.90
6110;DHT22;3085;49.444;11.054;2023-03-14T06:02:39;9.20;99.90
6110;DHT22;3085;49.444;11.054;2023-03-14T06:05:07;9.20;99.90
6110;DHT22;3085;49.444;11.054;2023-03-14T06:07:34;9.20;99.90
6110;DHT22;3085;49.444;11.054;2023-03-14T06:10:01;9.20;99.90
6110;DHT22;3085;49.444;11.054;2023-03-14T06:12:29;9.10;99.90
6110;DHT22;3085;49.444;11.054;2023-03-14T06:14:55;9.10;99.90
6110;DHT22;3085;49.444;11.054;2023-03-14T06:17:22;9.20;99.90
6110;DHT22;3085;49.444;11.054;2023-03-14T06:19:49;9.20;99.90
6110;DHT22;3085;49.444;11.054;2023-03-14T06:22:16;9.10;99.90
6110;DHT22;3085;49.444;11.054;2023-03-14T06:24:42;9.10;99.90
6110;DHT22;3085;49.444;11.054;2023-03-14T06:27:09;9.20;99.90
6110;DHT22;3085;49.444;11.054;2023-03-14T06:29:37;9.30;99.90
6110;DHT22;3085;49.444;11.054;2023-03-14T06:32:04;9.30;99.90
6110;DHT22;3085;49.444;11.054;2023-03-14T06:34:31;9.30;99.90
6110;DHT22;3085;49.444;11.054;2023-03-14T06:36:58;9.30;99.90
6110;DHT22;3085;49.444;11.054;2023-03-14T06:39:25;9.30;99.90
6110;DHT22;3085;49.444;11.054;2023-03-14T06:41:52;9.30;99.90
6110;DHT22;3085;49.444;11.054;2023-03-14T06:44:18;9.30;99.90
6110;DHT22;3085;49.444;11.054;2023-03-14T06:46:47;9.30;99.90
6110;DHT22;3085;49.444;11.054;2023-03-14T06:49:16;9.70;99.90
6110;DHT22;3085;49.444;11.054;2023-03-14T06:51:43;9.40;99.90
6110;DHT22;3085;49.444;11.054;2023-03-14T06:54:10;9.40;99.90
6110;DHT22;3085;49.444;11.054;2023-03-14T06:56:37;9.50;99.90
6110;DHT22;3085;49.444;11.054;2023-03-14T06:59:04;9.40;99.90
6110;DHT22;3085;49.444;11.054;2023-03-14T07:01:31;9.40;99.90
6110;DHT22;3085;49.444;11.054;2023-03-14T07:04:01;9.40;99.90
6110;DHT22;3085;49.444;11.054;2023-03-14T07:06:28;9.50;99.90
6110;DHT22;3085;49.444;11.054;2023-03-14T07:08:56;9.50;99.90
6110;DHT22;3085;49.444;11.054;2023-03-14T07:11:23;9.40;99.90
6110;DHT22;3085;49.444;11.054;2023-03-14T07:13:50;9.50;99.90
6110;DHT22;3085;49.444;11.054;2023-03-14T07:16:17;9.50;99.90
6110;DHT22;3085;49.444;11.054;2023-03-14T07:18:44;9.60;99.90
6110;DHT22;3085;49.444;11.054;2023-03-14T07:21:12;9.60;99.90
6110;DHT22;3085;49.444;11.054;2023-03-14T07:23:39;9.60;99.90
6110;DHT22;3085;49.444;11.054;2023-03-14T07:26:06;9.60;99.90
6110;DHT22;3085;49.444;11.054;2023-03-14T07:28:40;9.60;99.90
6110;DHT22;3085;49.444;11.054;2023-03-14T07:31:08;9.50;99.90
6110;DHT22;3085;49.444;11.054;2023-03-14T07:33:34;9.70;99.90
6110;DHT22;3085;49.444;11.054;2023-03-14T07:36:02;9.70;99.90
6110;DHT22;3085;49.444;11.054;2023-03-14T07:38:32;9.60;99.90
6110;DHT22;3085;49.444;11.054;2023-03-14T07:40:59;9.90;99.90
6110;DHT22;3085;49.444;11.054;2023-03-14T07:43:26;9.70;99.90
6110;DHT22;3085;49.444;11.054;2023-03-14T07:45:54;9.70;99.90
6110;DHT22;3085;49.444;11.054;2023-03-14T07:48:21;9.80;99.90
6110;DHT22;3085;49.444;11.054;2023-03-14T07:50:50;9.80;99.90
6110;DHT22;3085;49.444;11.054;2023-03-14T07:53:17;9.80;99.90
6110;DHT22;3085;49.444;11.054;2023-03-14T07:55:46;9.70;99.90
6110;DHT22;3085;49.444;11.054;2023-03-14T07:58:13;9.90;99.90
6110;DHT22;3085;49.444;11.054;2023-03-14T08:00:40;9.80;99.90
6110;DHT22;3085;49.444;11.054;2023-03-14T08:03:07;9.80;99.90
6110;DHT22;3085;49.444;11.054;2023-03-14T08:05:34;9.80;99.90
6110;DHT22;3085;49.444;11.054;2023-03-14T08:08:01;9.90;99.90
6110;DHT22;3085;49.444;11.054;2023-03-14T08:10:28;9.90;99.90
6110;DHT22;3085;49.444;11.054;2023-03-14T08:12:58;9.90;99.90
6110;DHT22;3085;49.444;11.054;2023-03-14T08:15:26;10.00;99.90
6110;DHT22;3085;49.444;11.054;2023-03-14T08:17:53;10.00;99.90
6110;DHT22;3085;49.444;11.054;2023-03-14T08:20:21;10.00;99.90
6110;DHT22;3085;49.444;11.054;2023-03-14T08:22:48;10.20;99.90
6110;DHT22;3085;49.444;11.054;2023-03-14T08:25:16;10.20;99.90
6110;DHT22;3085;49.444;11.054;2023-03-14T08:27:43;10.20;99.90
6110;DHT22;3085;49.444;11.054;2023-03-14T08:30:14;10.20;99.90
6110;DHT22;3085;49.444;11.054;2023-03-14T08:32:40;10.30;99.90
6110;DHT22;3085;49.444;11.054;2023-03-14T08:35:08;10.40;99.90
6110;DHT22;3085;49.444;11.054;2023-03-14T08:37:35;10.40;99.90
6110;DHT22;3085;49.444;11.054;2023-03-14T08:40:03;10.40;99.90
6110;DHT22;3085;49.444;11.054;2023-03-14T08:42:31;10.60;99.90
6110;DHT22;3085;49.444;11.054;2023-03-14T08:44:58;10.60;99.90
6110;DHT22;3085;49.444;11.054;2023-03-14T08:47:27;10.60;99.90
6110;DHT22;3085;49.444;11.054;2023-03-14T08:49:54;10.60;99.90
6110;DHT22;3085;49.444;11.054;2023-03-14T08:52:21;10.60;99.90
6110;DHT22;3085;49.444;11.054;2023-03-14T08:54:47;10.80;99.90
6110;DHT22;3085;49.444;11.054;2023-03-14T08:57:14;10.80;99.90
6110;DHT22;3085;49.444;11.054;2023-03-14T08:59:41;10.80;99.90
6110;DHT22;3085;49.444;11.054;2023-03-14T09:02:09;10.80;99.90
6110;DHT22;3085;49.444;11.054;2023-03-14T09:04:38;10.90;99.90
6110;DHT22;3085;49.444;11.054;2023-03-14T09:07:05;10.90;99.90
6110;DHT22;3085;49.444;11.054;2023-03-14T09:09:32;11.00;99.90
6110;DHT22;3085;49.444;11.054;2023-03-14T09:11:59;11.00;99.90
6110;DHT22;3085;49.444;11.054;2023-03-14T09:14:25;11.10;99.90
6110;DHT22;3085;49.444;11.054;2023-03-14T09:16:52;11.00;99.90
6110;DHT22;3085;49.444;11.054;2023-03-14T09:19:19;11.00;99.90
6110;DHT22;3085;49.444;11.054;2023-03-14T09:21:48;11.10;99.90
6110;DHT22;3085;49.444;11.054;2023-03-14T09:24:15;11.10;99.90
6110;DHT22;3085;49.444;11.054;2023-03-14T09:26:42;11.10;99.90
6110;DHT22;3085;49.444;11.054;2023-03-14T09:29:08;11.20;99.90
6110;DHT22;3085;49.444;11.054;2023-03-14T09:31:35;11.20;99.90
6110;DHT22;3085;49.444;11.054;2023-03-14T09:34:02;11.30;99.90
6110;DHT22;3085;49.444;11.054;2023-03-14T09:36:29;11.40;99.90
6110;DHT22;3085;49.444;11.054;2023-03-14T09:38:58;11.50;99.90
6110;DHT22;3085;49.444;11.054;2023-03-14T09:41:26;11.50;99.90
6110;DHT22;3085;49.444;11.054;2023-03-14T09:44:00;11.50;99.90
6110;DHT22;3085;49.444;11.054;2023-03-14T09:46:29;11.50;99.90
6110;DHT22;3085;49.444;11.054;2023-03-14T09:48:56;11.50;99.90
6110;DHT22;3085;49.444;11.054;2023-03-14T09:51:23;11.40;99.90
6110;DHT22;3085;49.444;11.054;2023-03-14T09:53:51;11.40;99.90
6110;DHT22;3085;49.444;11.054;2023-03-14T09:56:21;11.40;99.90
6110;DHT22;3085;49.444;11.054;2023-03-14T09:58:52;12.30;99.90
6110;DHT22;3085;49.444;11.054;2023-03-14T10:01:23;11.60;99.90
6110;DHT22;3085;49.444;11.054;2023-03-14T10:03:52;11.50;99.90
6110;DHT22;3085;49.444;11.054;2023-03-14T10:06:22;11.50;99.90
6110;DHT22;3085;49.444;11.054;2023-03-14T10:08:50;11.50;99.90
6110;DHT22;3085;49.444;11.054;2023-03-14T10:11:20;11.50;99.90
6110;DHT22;3085;49.444;11.054;2023-03-14T10:13:50;11.40;99.90
6110;DHT22;3085;49.444;11.054;2023-03-14T10:16:29;11.40;99.90
6110;DHT22;3085;49.444;11.054;2023-03-14T10:19:01;11.40;99.90
6110;DHT22;3085;49.444;11.054;2023-03-14T10:21:30;12.10;99.90
6110;DHT22;3085;49.444;11.054;2023-03-14T10:24:17;11.50;99.90
6110;DHT22;3085;49.444;11.054;2023-03-14T10:26:49;11.60;99.90
6110;DHT22;3085;49.444;11.054;2023-03-14T10:29:18;11.70;99.90
6110;DHT22;3085;49.444;11.054;2023-03-14T10:31:50;11.70;99.90
6110;DHT22;3085;49.444;11.054;2023-03-14T10:34:21;11.80;99.90
6110;DHT22;3085;49.444;11.054;2023-03-14T10:36:52;11.80;99.90
6110;DHT22;3085;49.444;11.054;2023-03-14T10:39:35;11.90;99.90
6110;DHT22;3085;49.444;11.054;2023-03-14T10:42:14;11.90;99.90
6110;DHT22;3085;49.444;11.054;2023-03-14T10:44:41;12.10;99.90
6110;DHT22;3085;49.444;11.054;2023-03-14T10:47:16;12.10;99.90
6110;DHT22;3085;49.444;11.054;2023-03-14T10:49:43;12.10;99.90
6110;DHT22;3085;49.444;11.054;2023-03-14T10:52:18;12.20;99.90
6110;DHT22;3085;49.444;11.054;2023-03-14T10:54:49;12.10;99.90
6110;DHT22;3085;49.444;11.054;2023-03-14T10:57:19;12.20;99.90
6110;DHT22;3085;49.444;11.054;2023-03-14T10:59:46;12.10;99.90
6110;DHT22;3085;49.444;11.054;2023-03-14T11:02:37;12.00;99.90
6110;DHT22;3085;49.444;11.054;2023-03-14T11:05:18;12.00;99.90
6110;DHT22;3085;49.444;11.054;2023-03-14T11:07:46;12.00;99.90
6110;DHT22;3085;49.444;11.054;2023-03-14T11:10:19;12.00;99.90
6110;DHT22;3085;49.444;11.054;2023-03-14T11:12:56;11.90;99.90
6110;DHT22;3085;49.444;11.054;2023-03-14T11:15:37;11.90;99.90
6110;DHT22;3085;49.444;11.054;2023-03-14T11:18:48;11.80;99.90
6110;DHT22;3085;49.444;11.054;2023-03-14T11:21:22;11.80;99.90
6110;DHT22;3085;49.444;11.054;2023-03-14T11:24:01;11.90;99.90
6110;DHT22;3085;49.444;11.054;2023-03-14T11:26:33;11.80;99.90
6110;DHT22;3085;49.444;11.054;2023-03-14T11:29:13;11.80;99.90
6110;DHT22;3085;49.444;11.054;2023-03-14T11:31:44;11.60;99.90
6110;DHT22;3085;49.444;11.054;2023-03-14T11:34:16;11.40;99.90
6110;DHT22;3085;49.444;11.054;2023-03-14T11:36:48;11.40;99.90
6110;DHT22;3085;49.444;11.054;2023-03-14T11:39:19;11.50;99.90
6110;DHT22;3085;49.444;11.054;2023-03-14T11:41:47;11.70;99.90
6110;DHT22;3085;49.444;11.054;2023-03-14T11:44:19;11.80;99.90
6110;DHT22;3085;49.444;11.054;2023-03-14T11:46:49;12.00;99.90
6110;DHT22;3085;49.444;11.054;2023-03-14T11:49:27;12.10;99.90
6110;DHT22;3085;49.444;11.054;2023-03-14T11:51:58;12.20;99.90
6110;DHT22;3085;49.444;11.054;2023-03-14T11:54:32;12.40;99.90
6110;DHT22;3085;49.444;11.054;2023-03-14T11:57:02;12.40;99.90
6110;DHT22;3085;49.444;11.054;2023-03-14T11:59:37;12.40;99.90
6110;DHT22;3085;49.444;11.054;2023-03-14T12:02:13;12.40;99.90
6110;DHT22;3085;49.444;11.054;2023-03-14T12:04:53;12.50;99.90
6110;DHT22;3085;49.444;11.054;2023-03-14T12:07:27;12.60;99.90
6110;DHT22;3085;49.444;11.054;2023-03-14T12:09:56;12.50;99.90
6110;DHT22;3085;49.444;11.054;2023-03-14T12:12:24;12.60;99.90
6110;DHT22;3085;49.444;11.054;2023-03-14T12:14:56;12.70;99.90
6110;DHT22;3085;49.444;11.054;2023-03-14T12:17:25;12.80;99.90
6110;DHT22;3085;49.444;11.054;2023-03-14T12:20:11;12.90;99.90
6110;DHT22;3085;49.444;11.054;2023-03-14T12:22:42;13.00;99.90
6110;DHT22;3085;49.444;11.054;2023-03-14T12:25:16;13.00;99.90
6110;DHT22;3085;49.444;11.054;2023-03-14T12:30:33;13.00;99.90
6110;DHT22;3085;49.444;11.054;2023-03-14T12:33:33;13.00;99.90
6110;DHT22;3085;49.444;11.054;2023-03-14T12:36:05;14.20;99.90
6110;DHT22;3085;49.444;11.054;2023-03-14T12:38:59;13.10;99.90
6110;DHT22;3085;49.444;11.054;2023-03-14T12:41:34;13.10;99.90
6110;DHT22;3085;49.444;11.054;2023-03-14T12:47:00;13.10;99.90
6110;DHT22;3085;49.444;11.054;2023-03-14T12:49:40;13.10;99.90
6110;DHT22;3085;49.444;11.054;2023-03-14T12:52:13;13.10;99.90
6110;DHT22;3085;49.444;11.054;2023-03-14T12:54:44;13.10;99.90
6110;DHT22;3085;49.444;11.054;2023-03-14T12:57:21;13.00;99.90
6110;DHT22;3085;49.444;11.054;2023-03-14T12:59:51;13.00;99.90
6110;DHT22;3085;49.444;11.054;2023-03-14T13:02:25;12.80;99.90
6110;DHT22;3085;49.444;11.054;2023-03-14T13:05:03;12.50;99.90
6110;DHT22;3085;49.444;11.054;2023-03-14T13:07:33;12.10;99.90
6110;DHT22;3085;49.444;11.054;2023-03-14T13:10:15;12.00;99.90
6110;DHT22;3085;49.444;11.054;2023-03-14T13:12:48;11.90;99.90
6110;DHT22;3085;49.444;11.054;2023-03-14T13:15:31;11.70;99.90
6110;DHT22;3085;49.444;11.054;2023-03-14T13:18:03;11.70;99.90
6110;DHT22;3085;49.444;11.054;2023-03-14T13:20:37;11.60;99.90
6110;DHT22;3085;49.444;11.054;2023-03-14T13:23:04;11.60;99.90
6110;DHT22;3085;49.444;11.054;2023-03-14T13:25:35;11.40;99.90
6110;DHT22;3085;49.444;11.054;2023-03-14T13:28:03;11.30;99.90
6110;DHT22;3085;49.444;11.054;2023-03-14T13:30:39;11.20;99.90
6110;DHT22;3085;49.444;11.054;2023-03-14T13:33:13;11.20;99.90
6110;DHT22;3085;49.444;11.054;2023-03-14T13:35:42;11.00;99.90
6110;DHT22;3085;49.444;11.054;2023-03-14T13:38:18;11.00;99.90
6110;DHT22;3085;49.444;11.054;2023-03-14T13:40:45;11.00;99.90
6110;DHT22;3085;49.444;11.054;2023-03-14T13:43:17;10.90;99.90
6110;DHT22;3085;49.444;11.054;2023-03-14T13:45:50;11.80;99.90
6110;DHT22;3085;49.444;11.054;2023-03-14T13:48:19;10.80;99.90
6110;DHT22;3085;49.444;11.054;2023-03-14T13:50:56;10.80;99.90
6110;DHT22;3085;49.444;11.054;2023-03-14T13:53:23;10.70;99.90
6110;DHT22;3085;49.444;11.054;2023-03-14T13:55:51;10.60;99.90
6110;DHT22;3085;49.444;11.054;2023-03-14T13:58:24;10.60;99.90
6110;DHT22;3085;49.444;11.054;2023-03-14T14:00:57;10.50;99.90
6110;DHT22;3085;49.444;11.054;2023-03-14T14:03:26;10.50;99.90
6110;DHT22;3085;49.444;11.054;2023-03-14T14:05:55;10.40;99.90
6110;DHT22;3085;49.444;11.054;2023-03-14T14:08:23;10.30;99.90
6110;DHT22;3085;49.444;11.054;2023-03-14T14:10:50;10.30;99.90
6110;DHT22;3085;49.444;11.054;2023-03-14T14:13:21;10.30;99.90
6110;DHT22;3085;49.444;11.054;2023-03-14T14:15:52;10.30;99.90
6110;DHT22;3085;49.444;11.054;2023-03-14T14:18:20;10.20;99.90
6110;DHT22;3085;49.444;11.054;2023-03-14T14:20:50;10.20;99.90
6110;DHT22;3085;49.444;11.054;2023-03-14T14:23:19;10.20;99.90
6110;DHT22;3085;49.444;11.054;2023-03-14T14:25:51;10.10;99.90
6110;DHT22;3085;49.444;11.054;2023-03-14T14:28:24;11.90;99.90
6110;DHT22;3085;49.444;11.054;2023-03-14T14:31:17;9.80;99.90
6110;DHT22;3085;49.444;11.054;2023-03-14T14:33:53;9.70;99.90
6110;DHT22;3085;49.444;11.054;2023-03-14T14:36:24;9.70;99.90
6110;DHT22;3085;49.444;11.054;2023-03-14T14:38:52;9.50;99.90
6110;DHT22;3085;49.444;11.054;2023-03-14T14:41:20;9.50;99.90
6110;DHT22;3085;49.444;11.054;2023-03-14T14:43:47;9.50;99.90
6110;DHT22;3085;49.444;11.054;2023-03-14T14:46:17;9.50;99.90
6110;DHT22;3085;49.444;11.054;2023-03-14T14:48:45;9.50;99.90
6110;DHT22;3085;49.444;11.054;2023-03-14T14:51:25;9.40;99.90
6110;DHT22;3085;49.444;11.054;2023-03-14T14:54:09;9.40;99.90
6110;DHT22;3085;49.444;11.054;2023-03-14T14:56:37;9.20;99.90
6110;DHT22;3085;49.444;11.054;2023-03-14T14:59:05;9.10;99.90
6110;DHT22;3085;49.444;11.054;2023-03-14T15:01:35;9.00;99.90
6110;DHT22;3085;49.444;11.054;2023-03-14T15:04:13;9.00;99.90
6110;DHT22;3085;49.444;11.054;2023-03-14T15:06:44;8.70;99.90
6110;DHT22;3085;49.444;11.054;2023-03-14T15:09:12;8.50;99.90
6110;DHT22;3085;49.444;11.054;2023-03-14T15:11:38;8.30;99.90
6110;DHT22;3085;49.444;11.054;2023-03-14T15:14:05;8.30;99.90
6110;DHT22;3085;49.444;11.054;2023-03-14T15:16:33;8.20;99.90
6110;DHT22;3085;49.444;11.054;2023-03-14T15:19:05;8.00;99.90
6110;DHT22;3085;49.444;11.054;2023-03-14T15:21:35;8.30;99.90
6110;DHT22;3085;49.444;11.054;2023-03-14T15:24:04;7.90;99.90
6110;DHT22;3085;49.444;11.054;2023-03-14T15:26:30;7.90;99.90
6110;DHT22;3085;49.444;11.054;2023-03-14T15:28:57;7.80;99.90
6110;DHT22;3085;49.444;11.054;2023-03-14T15:31:24;7.70;99.90
6110;DHT22;3085;49.444;11.054;2023-03-14T15:33:50;8.40;99.90
6110;DHT22;3085;49.444;11.054;2023-03-14T15:36:23;7.80;99.90
6110;DHT22;3085;49.444;11.054;2023-03-14T15:38:51;7.80;99.90
6110;DHT22;3085;49.444;11.054;2023-03-14T15:41:19;7.80;99.90
6110;DHT22;3085;49.444;11.054;2023-03-14T15:43:46;7.80;99.90
6110;DHT22;3085;49.444;11.054;2023-03-14T15:46:14;7.90;99.90
6110;DHT22;3085;49.444;11.054;2023-03-14T15:48:42;7.90;99.90
6110;DHT22;3085;49.444;11.054;2023-03-14T15:51:09;7.90;99.90
6110;DHT22;3085;49.444;11.054;2023-03-14T15:53:36;9.50;99.90
6110;DHT22;3085;49.444;11.054;2023-03-14T15:56:03;7.90;99.90
6110;DHT22;3085;49.444;11.054;2023-03-14T15:58:32;7.90;99.90
6110;DHT22;3085;49.444;11.054;2023-03-14T16:00:59;7.90;99.90
6110;DHT22;3085;49.444;11.054;2023-03-14T16:03:26;8.00;99.90
6110;DHT22;3085;49.444;11.054;2023-03-14T16:05:54;8.00;99.90
6110;DHT22;3085;49.444;11.054;2023-03-14T16:08:21;8.10;99.90
6110;DHT22;3085;49.444;11.054;2023-03-14T16:10:48;8.10;99.90
6110;DHT22;3085;49.444;11.054;2023-03-14T16:13:15;8.20;99.90
6110;DHT22;3085;49.444;11.054;2023-03-14T16:15:52;8.20;99.90
6110;DHT22;3085;49.444;11.054;2023-03-14T16:18:19;8.20;99.90